Time;durP1;ratioP1;P1;durP2;ratioP2;P2;SDS_P1;SDS_P2;PMS_P1;PMS_P2;Temp;Humidity;BMP_temperature;BMP_pressure;BME280_temperature;BME280_humidity;BME280_pressure;Samples;Min_cycle;Max_cycle;Signal;HPM_P1;HPM_P2
2021/03/30 00:01:11;;;;;;;7.07;3.75;;;;;;;7.22;52.90;101553.84;5071304;28;20425;-73
2021/03/30 00:04:03;;;;;;;6.18;4.22;;;;;;;6.98;53.62;101557.81;5071352;28;20081;-73
2021/03/30 00:06:29;;;;;;;5.38;4.00;;;;;;;7.54;51.98;101539.84;5071222;28;20502;-73
2021/03/30 00:08:55;;;;;;;6.45;4.68;;;;;;;7.09;53.73;101555.38;5073218;28;20505;-73
2021/03/30 00:11:23;;;;;;;9.23;4.30;;;;;;;7.01;53.29;101535.06;5071965;28;20035;-73
2021/03/30 00:13:48;;;;;;;6.53;4.45;;;;;;;7.36;52.68;101552.31;5072398;28;20038;-73
2021/03/30 00:16:31;;;;;;;6.22;4.40;;;;;;;7.55;53.30;101547.44;5071334;28;20032;-72
2021/03/30 00:18:58;;;;;;;7.10;4.38;;;;;;;7.47;52.12;101549.06;5088078;28;20025;-73
2021/03/30 00:21:32;;;;;;;10.38;6.80;;;;;;;7.34;53.13;101549.78;5070838;28;20039;-73
2021/03/30 00:23:58;;;;;;;15.07;8.68;;;;;;;7.83;52.00;101544.34;5069970;28;20035;-73
2021/03/30 00:26:34;;;;;;;18.48;11.02;;;;;;;7.20;53.59;101541.19;5071084;28;20033;-73
2021/03/30 00:29:00;;;;;;;16.88;10.55;;;;;;;7.30;53.37;101547.19;5073534;28;20410;-73
2021/03/30 00:31:40;;;;;;;18.55;11.95;;;;;;;7.49;53.52;101529.69;5092283;28;20032;-72
2021/03/30 00:34:06;;;;;;;14.90;10.15;;;;;;;7.68;51.87;101530.72;5092399;28;20024;-72
2021/03/30 00:36:32;;;;;;;13.07;8.07;;;;;;;7.09;53.89;101550.31;5092199;28;20089;-73
2021/03/30 00:39:03;;;;;;;14.63;9.02;;;;;;;7.48;52.96;101549.91;5090981;28;20078;-73
2021/03/30 00:41:41;;;;;;;12.18;8.15;;;;;;;7.59;53.72;101545.78;5092145;28;20027;-73
2021/03/30 00:44:12;;;;;;;10.20;6.90;;;;;;;7.75;52.93;101537.50;5092191;28;20039;-72
2021/03/30 00:46:48;;;;;;;12.98;5.97;;;;;;;7.48;52.25;101544.84;5091854;28;20024;-73
2021/03/30 00:49:17;;;;;;;12.98;6.57;;;;;;;7.53;52.51;101522.97;5092218;28;20036;-73
2021/03/30 00:51:48;;;;;;;13.82;6.53;;;;;;;7.61;52.84;101536.53;5074100;28;20401;-73
2021/03/30 00:54:15;;;;;;;10.95;6.32;;;;;;;7.17;53.44;101515.03;5092082;28;20056;-73
2021/03/30 00:56:42;;;;;;;13.70;7.05;;;;;;;7.49;53.35;101531.34;5073999;28;20028;-73
2021/03/30 00:59:20;;;;;;;16.90;9.15;;;;;;;7.54;53.58;101533.13;5091849;28;20031;-73
2021/03/30 01:02:02;;;;;;;16.88;10.10;;;;;;;7.26;53.50;101525.22;5091899;28;20110;-73
2021/03/30 01:04:30;;;;;;;20.70;9.68;;;;;;;7.39;54.04;101515.25;5092017;28;20031;-73
2021/03/30 01:07:02;;;;;;;20.65;11.35;;;;;;;7.67;51.98;101518.88;5091964;28;20506;-73
2021/03/30 01:09:32;;;;;;;;;;;;;;;7.34;53.79;101531.22;5074129;28;20455;-73
2021/03/30 01:12:10;;;;;;;11.45;7.75;;;;;;;7.41;52.59;101518.63;5073674;28;19970;-73
2021/03/30 01:14:38;;;;;;;12.55;7.22;;;;;;;7.64;52.53;101524.78;5091758;28;20059;-73
2021/03/30 01:17:20;;;;;;;14.07;6.93;;;;;;;7.53;51.22;101505.25;5073653;28;20028;-73
2021/03/30 01:19:59;;;;;;;14.82;8.52;;;;;;;7.35;52.96;101512.69;5091625;28;20031;-73
2021/03/30 01:22:50;;;;;;;12.73;8.55;;;;;;;7.03;53.75;101526.66;5073467;28;20066;-73
2021/03/30 01:25:19;;;;;;;12.50;7.27;;;;;;;7.06;53.78;101526.69;5073959;28;20036;-74
2021/03/30 01:28:42;;;;;;;14.02;8.20;;;;;;;7.21;53.37;101517.59;5091489;28;20044;-73
2021/03/30 01:31:24;;;;;;;13.43;8.05;;;;;;;7.60;52.03;101514.59;5010319;28;20038;-72
2021/03/30 01:34:18;;;;;;;14.18;7.72;;;;;;;7.20;53.82;101515.03;5009696;28;20415;-73
2021/03/30 01:36:45;;;;;;;13.60;8.43;;;;;;;6.97;53.94;101508.06;5055022;28;20123;-73
2021/03/30 01:39:18;;;;;;;13.73;6.60;;;;;;;6.74;54.18;101512.00;5073429;28;20481;-73
2021/03/30 01:41:48;;;;;;;13.02;7.28;;;;;;;6.54;55.30;101510.03;5091304;28;20032;-73
2021/03/30 01:44:18;;;;;;;11.27;7.30;;;;;;;7.24;53.28;101496.53;5073424;28;20509;-73
2021/03/30 01:46:47;;;;;;;11.43;6.72;;;;;;;7.03;54.93;101512.34;5091234;28;20024;-73
2021/03/30 01:49:26;;;;;;;13.63;6.97;;;;;;;7.34;53.24;101505.91;5091398;28;20059;-73
2021/03/30 01:52:01;;;;;;;8.88;5.88;;;;;;;7.19;53.37;101518.41;5091618;28;20077;-73
2021/03/30 01:54:49;;;;;;;11.32;7.10;;;;;;;7.31;52.70;101511.78;5073406;28;20128;-74
2021/03/30 01:57:28;;;;;;;11.20;6.78;;;;;;;7.12;53.93;101516.66;5073015;28;20089;-73
2021/03/30 02:00:07;;;;;;;12.00;6.50;;;;;;;7.09;54.49;101514.91;5073097;28;20025;-73
2021/03/30 02:02:36;;;;;;;10.70;6.25;;;;;;;6.98;53.09;101491.22;5073251;28;20024;-73
2021/03/30 02:05:08;;;;;;;11.23;6.80;;;;;;;7.11;53.86;101509.91;5091104;28;20032;-73
2021/03/30 02:08:12;;;;;;;13.82;8.35;;;;;;;6.99;53.90;101503.88;5091281;28;20028;-73
2021/03/30 02:10:51;;;;;;;11.65;7.10;;;;;;;7.27;52.58;101499.13;5073083;28;20028;-73
2021/03/30 02:13:38;;;;;;;10.45;6.35;;;;;;;7.99;50.27;101501.41;5073259;28;20036;-74
2021/03/30 02:16:29;;;;;;;9.98;5.72;;;;;;;8.61;48.61;101495.91;5091153;28;20052;-73
2021/03/30 02:19:11;;;;;;;6.00;3.87;;;;;;;8.79;47.67;101500.22;5073393;28;20032;-73
2021/03/30 02:22:01;;;;;;;;;;;;;;;8.98;47.36;101503.63;5091500;28;20325;-73
2021/03/30 02:24:33;;;;;;;9.50;4.95;;;;;;;9.02;46.66;101502.81;5073054;28;19912;-73
2021/03/30 02:27:13;;;;;;;10.00;5.20;;;;;;;8.96;46.80;101487.56;5072956;28;20576;-73
2021/03/30 02:29:40;;;;;;;8.05;5.10;;;;;;;8.96;46.04;101479.97;5085982;28;20083;-73
2021/03/30 02:32:15;;;;;;;6.90;5.03;;;;;;;9.12;46.22;101500.31;5069674;28;20517;-73
2021/03/30 02:34:55;;;;;;;6.55;4.65;;;;;;;9.18;46.16;101492.72;5069477;28;20036;-73
2021/03/30 02:37:22;;;;;;;10.85;5.57;;;;;;;8.79;47.96;101502.75;5070678;28;20017;-74
2021/03/30 02:40:19;;;;;;;13.65;7.78;;;;;;;6.71;53.91;101501.00;5069775;28;20035;-73
2021/03/30 02:42:47;;;;;;;15.57;8.10;;;;;;;6.39;55.17;101512.38;5069668;28;20028;-73
2021/03/30 02:45:18;;;;;;;9.27;6.50;;;;;;;5.91;57.01;101518.41;5069460;28;20059;-73
2021/03/30 02:47:47;;;;;;;17.63;7.15;;;;;;;5.91;57.60;101505.78;5072116;28;20123;-73
2021/03/30 02:50:16;;;;;;;12.98;6.75;;;;;;;5.81;56.01;101513.16;5074357;28;20047;-73
2021/03/30 02:52:56;;;;;;;10.65;7.07;;;;;;;5.24;59.34;101518.91;5074044;28;20496;-73
2021/03/30 02:55:41;;;;;;;11.02;6.70;;;;;;;5.69;59.11;101508.75;5074354;28;20024;-72
2021/03/30 02:58:08;;;;;;;10.75;7.03;;;;;;;5.76;58.10;101505.53;5072946;28;20043;-73
2021/03/30 03:00:35;;;;;;;14.38;6.97;;;;;;;6.14;57.15;101503.59;5089494;28;20063;-73
2021/03/30 03:03:12;;;;;;;13.52;8.32;;;;;;;6.72;54.31;101500.16;5073793;28;20111;-73
2021/03/30 03:05:43;;;;;;;15.95;8.82;;;;;;;6.61;54.59;101499.19;5074056;28;20028;-73
2021/03/30 03:08:23;;;;;;;13.95;8.57;;;;;;;6.73;55.08;101487.56;5073891;28;20021;-73
2021/03/30 03:11:13;;;;;;;16.52;10.05;;;;;;;6.87;54.51;101496.13;5074005;28;20029;-73
2021/03/30 03:13:45;;;;;;;18.65;10.77;;;;;;;7.14;53.56;101497.28;5072524;28;20090;-73
2021/03/30 03:16:12;;;;;;;9.68;6.97;;;;;;;7.76;50.28;101461.56;5072592;28;20028;-73
2021/03/30 03:18:56;;;;;;;11.98;6.50;;;;;;;8.09;49.37;101472.78;5073702;28;20078;-73
2021/03/30 03:21:29;;;;;;;9.95;5.70;;;;;;;8.31;48.84;101484.75;5073515;28;20121;-73
2021/03/30 03:23:55;;;;;;;10.25;5.30;;;;;;;8.31;47.91;101485.63;5072233;28;20037;-73
2021/03/30 03:26:22;;;;;;;8.10;5.47;;;;;;;8.45;48.03;101480.63;5072442;28;20090;-74
2021/03/30 03:28:49;;;;;;;8.95;5.63;;;;;;;8.31;48.75;101478.03;5072063;28;20059;-73
2021/03/30 03:31:25;;;;;;;8.50;5.07;;;;;;;8.17;49.13;101468.59;5092683;28;20043;-73
2021/03/30 03:33:52;;;;;;;8.60;5.22;;;;;;;8.23;48.51;101453.44;5075764;28;20497;-73
2021/03/30 03:36:43;;;;;;;8.52;5.03;;;;;;;8.29;49.60;101488.97;5093697;28;20094;-73
2021/03/30 03:39:19;;;;;;;9.60;4.90;;;;;;;8.66;47.88;101480.69;5075504;28;20032;-73
2021/03/30 03:41:46;;;;;;;9.25;5.35;;;;;;;8.91;47.70;101482.50;5093344;28;20032;-74
2021/03/30 03:44:19;;;;;;;7.70;5.25;;;;;;;8.85;46.87;101476.56;5093403;28;20032;-74
2021/03/30 03:46:49;;;;;;;9.70;5.78;;;;;;;8.71;47.65;101464.66;5075144;28;20127;-73
2021/03/30 03:49:18;;;;;;;8.65;5.70;;;;;;;8.85;47.55;101466.41;5075277;28;20119;-73
2021/03/30 03:51:56;;;;;;;7.55;5.32;;;;;;;9.33;46.84;101486.81;5075160;28;20036;-73
2021/03/30 03:54:34;;;;;;;8.20;5.50;;;;;;;9.19;48.02;101478.34;5075045;28;20024;-72
2021/03/30 03:57:29;;;;;;;11.85;6.20;;;;;;;8.91;47.98;101486.72;5074753;28;20115;-73
2021/03/30 03:59:57;;;;;;;8.75;5.60;;;;;;;8.70;48.80;101478.19;5091475;28;20024;-73
2021/03/30 04:02:53;;;;;;;8.48;5.25;;;;;;;8.72;49.24;101490.88;5073925;28;20059;-75
2021/03/30 04:05:35;;;;;;;9.38;5.88;;;;;;;8.63;48.83;101473.97;5057570;28;20039;-74
2021/03/30 04:08:10;;;;;;;9.93;5.45;;;;;;;8.57;49.41;101473.94;5073587;28;20025;-73
2021/03/30 04:10:42;;;;;;;9.95;5.32;;;;;;;8.20;50.64;101458.50;5093427;28;20055;-75
2021/03/30 04:13:10;;;;;;;12.98;5.82;;;;;;;8.25;50.02;101467.84;5073723;28;20031;-74
2021/03/30 04:15:53;;;;;;;12.93;6.55;;;;;;;8.58;50.07;101487.44;5091511;28;20020;-73
2021/03/30 04:18:19;;;;;;;16.67;7.65;;;;;;;8.44;50.60;101494.13;5074030;28;20089;-75
2021/03/30 04:20:49;;;;;;;12.65;7.30;;;;;;;8.46;51.26;101492.44;5074363;28;20082;-73
2021/03/30 04:23:40;;;;;;;13.18;7.43;;;;;;;8.65;52.12;101500.16;5073090;28;20421;-74
2021/03/30 04:26:13;;;;;;;11.93;7.25;;;;;;;8.66;51.75;101504.38;5073800;28;20123;-77
2021/03/30 04:28:54;;;;;;;12.02;6.70;;;;;;;8.97;51.94;101497.75;5074305;28;20075;-76
2021/03/30 04:31:21;;;;;;;11.25;7.05;;;;;;;8.93;52.17;101490.97;5049708;28;20153;-77
2021/03/30 04:33:55;;;;;;;9.98;6.53;;;;;;;8.92;51.95;101489.25;5050864;28;20041;-78
2021/03/30 04:36:30;;;;;;;13.55;7.20;;;;;;;9.15;52.13;101497.75;5050643;28;20055;-75
2021/03/30 04:38:57;;;;;;;11.27;6.32;;;;;;;9.11;52.06;101483.38;5049866;28;20105;-75
2021/03/30 04:41:28;;;;;;;11.77;7.40;;;;;;;9.04;52.45;101494.38;5049975;28;20029;-76
2021/03/30 04:44:17;;;;;;;14.68;7.75;;;;;;;9.18;52.05;101504.53;5052142;28;20035;-76
2021/03/30 04:46:45;;;;;;;11.50;6.72;;;;;;;9.18;52.22;101497.78;5051072;28;20041;-75
2021/03/30 04:49:17;;;;;;;12.23;7.57;;;;;;;9.20;53.66;101493.56;5051267;28;20099;-75
2021/03/30 04:51:44;;;;;;;9.80;6.38;;;;;;;9.34;51.94;101491.91;5052256;28;20512;-77
2021/03/30 04:54:10;;;;;;;17.98;7.50;;;;;;;9.10;53.14;101485.91;5050992;28;20107;-77
2021/03/30 04:56:37;;;;;;;11.00;6.45;;;;;;;9.23;52.50;101490.19;5052406;28;20474;-78
2021/03/30 04:59:35;;;;;;;9.55;6.32;;;;;;;9.36;53.10;101499.50;5051133;28;20409;-77
2021/03/30 05:02:35;;;;;;;13.32;7.10;;;;;;;9.37;53.55;101493.56;5050922;28;20048;-76
2021/03/30 05:08:22;;;;;;;12.57;7.93;;;;;;;9.30;53.91;101492.75;5052470;28;20071;-77
2021/03/30 05:17:31;;;;;;;13.23;7.93;;;;;;;9.45;53.43;101505.44;5052293;28;20043;-76
2021/03/30 05:20:28;;;;;;;14.02;7.65;;;;;;;9.72;52.61;101496.16;5050662;28;20112;-80
2021/03/30 05:23:39;;;;;;;11.85;8.02;;;;;;;9.81;53.12;101507.16;5050550;28;20029;-77
2021/03/30 05:26:05;;;;;;;13.00;7.78;;;;;;;9.84;52.48;101501.22;5058809;28;20029;-77
2021/03/30 05:28:59;;;;;;;13.98;8.02;;;;;;;9.88;53.43;101503.78;5050461;28;20025;-78
2021/03/30 05:32:10;;;;;;;12.05;8.00;;;;;;;10.20;51.69;101502.06;5051647;28;20082;-78
2021/03/30 05:34:46;;;;;;;12.63;7.90;;;;;;;10.29;52.39;101503.75;5050248;28;20087;-78
2021/03/30 05:37:31;;;;;;;12.13;7.50;;;;;;;10.17;51.70;101507.16;5051728;28;20482;-78
2021/03/30 05:39:56;;;;;;;12.07;8.13;;;;;;;10.58;50.97;101514.66;5050750;28;20067;-78
2021/03/30 05:45:44;;;;;;;11.68;8.18;;;;;;;10.50;52.57;101513.03;5051686;28;20048;-78
2021/03/30 05:48:25;;;;;;;12.32;8.65;;;;;;;10.85;50.61;101512.03;5051607;28;20025;-78
2021/03/30 05:50:59;;;;;;;12.55;8.50;;;;;;;10.67;51.54;101509.56;5050281;28;20098;-78
2021/03/30 05:53:27;;;;;;;16.35;8.95;;;;;;;11.06;50.37;101518.72;5050444;28;20025;-78
2021/03/30 05:59:20;;;;;;;14.55;9.63;;;;;;;10.96;51.15;101520.47;5051673;28;20040;-77
2021/03/30 06:05:08;;;;;;;14.32;9.25;;;;;;;11.17;50.66;101514.41;5051275;28;20438;-79
2021/03/30 06:07:39;;;;;;;13.43;9.13;;;;;;;11.34;49.48;101520.25;5051027;28;20461;-78
2021/03/30 06:10:48;;;;;;;13.95;8.80;;;;;;;11.57;50.00;101523.47;5050050;28;20029;-78
2021/03/30 06:14:04;;;;;;;13.70;8.55;;;;;;;11.43;48.87;101522.72;5051481;28;20491;-78
2021/03/30 06:16:50;;;;;;;13.13;9.10;;;;;;;11.72;48.95;101525.97;5049871;28;20124;-78
2021/03/30 06:22:48;;;;;;;13.05;8.65;;;;;;;11.68;48.25;101498.81;5055054;28;20043;-77
2021/03/30 06:28:40;;;;;;;18.80;11.10;;;;;;;12.01;48.08;101521.47;5055273;28;20127;-77
2021/03/30 06:31:17;;;;;;;16.60;9.73;;;;;;;12.00;48.83;101513.84;5089656;28;20126;-76
2021/03/30 06:34:00;;;;;;;13.95;9.93;;;;;;;12.40;48.24;101525.31;5077256;28;20048;-77
2021/03/30 06:36:40;;;;;;;14.63;10.07;;;;;;;12.94;47.21;101528.94;5076772;28;20024;-76
2021/03/30 06:39:10;;;;;;;14.38;10.73;;;;;;;12.84;47.41;101523.09;5095074;28;20024;-76
2021/03/30 06:42:17;;;;;;;15.30;10.55;;;;;;;12.96;46.09;101528.06;5095378;28;20489;-76
2021/03/30 06:48:56;;;;;;;19.03;12.17;;;;;;;13.75;44.76;101520.13;5094767;28;20039;-76
2021/03/30 06:51:25;;;;;;;15.90;11.68;;;;;;;12.99;45.98;101515.25;5094545;28;20262;-76
2021/03/30 06:54:07;;;;;;;15.30;11.35;;;;;;;13.24;46.04;101528.56;5094627;28;20103;-76
2021/03/30 06:57:13;;;;;;;13.88;10.25;;;;;;;13.42;45.83;101533.44;5094663;28;20028;-78
2021/03/30 07:00:09;;;;;;;17.17;11.65;;;;;;;13.35;46.17;101534.38;5094593;28;20036;-77
2021/03/30 07:03:12;;;;;;;17.13;12.18;;;;;;;13.09;45.07;101530.50;5076650;28;20038;-77
2021/03/30 07:05:55;;;;;;;20.63;12.80;;;;;;;14.19;43.59;101524.50;5076582;28;20036;-78
2021/03/30 07:08:43;;;;;;;21.38;13.85;;;;;;;13.58;45.36;101524.66;5076739;28;20031;-77
2021/03/30 07:11:32;;;;;;;18.80;12.40;;;;;;;13.60;45.49;101535.72;5076290;28;20421;-77
2021/03/30 07:17:36;;;;;;;17.48;12.45;;;;;;;13.72;44.92;101519.34;5094483;28;20043;-77
2021/03/30 07:20:07;;;;;;;17.90;12.52;;;;;;;14.44;43.60;101523.19;5076061;28;20401;-76
2021/03/30 07:22:41;;;;;;;18.55;13.10;;;;;;;14.08;43.46;101523.84;5093964;28;20036;-77
2021/03/30 07:28:49;;;;;;;17.52;12.65;;;;;;;13.93;43.83;101537.72;5094208;28;20047;-77
2021/03/30 07:34:45;;;;;;;20.20;12.75;;;;;;;14.38;42.79;101540.41;5094067;28;20050;-77
2021/03/30 07:37:45;;;;;;;17.52;11.98;;;;;;;14.07;43.46;101528.97;5075997;28;20095;-77
2021/03/30 07:40:14;;;;;;;16.70;12.25;;;;;;;14.38;43.27;101530.16;5046723;28;20036;-76
2021/03/30 07:43:24;;;;;;;20.50;13.95;;;;;;;14.30;42.75;101544.81;5093712;28;20023;-77
2021/03/30 07:49:11;;;;;;;16.70;12.18;;;;;;;14.22;41.62;101551.75;5093720;28;20504;-77
2021/03/30 07:52:21;;;;;;;17.85;11.77;;;;;;;14.24;42.14;101548.25;5075520;28;20024;-77
2021/03/30 07:58:11;;;;;;;23.52;13.70;;;;;;;14.98;40.22;101530.63;5093773;28;20136;-78
2021/03/30 08:01:01;;;;;;;16.85;11.52;;;;;;;14.26;41.56;101545.69;5075225;28;20155;-77
2021/03/30 08:04:16;;;;;;;15.98;11.32;;;;;;;14.44;41.68;101542.84;5075339;28;20108;-77
2021/03/30 08:07:06;;;;;;;16.52;11.10;;;;;;;14.13;40.67;101536.53;5075363;28;20028;-78
2021/03/30 08:09:38;;;;;;;16.70;10.93;;;;;;;14.41;40.31;101536.06;5075325;28;20090;-76
2021/03/30 08:12:23;;;;;;;14.30;10.18;;;;;;;14.64;40.11;101541.56;5092986;28;20024;-77
2021/03/30 08:15:31;;;;;;;14.45;10.65;;;;;;;15.06;39.66;101534.75;5092901;28;20032;-78
2021/03/30 08:18:20;;;;;;;18.40;10.02;;;;;;;14.62;40.39;101540.75;5074962;28;20036;-77
2021/03/30 08:21:20;;;;;;;13.55;9.93;;;;;;;14.83;39.62;101549.75;5093142;28;20525;-77
2021/03/30 08:24:16;;;;;;;15.25;10.45;;;;;;;14.96;39.02;101540.94;5093034;28;20047;-76
2021/03/30 08:30:26;;;;;;;15.53;10.83;;;;;;;15.49;38.16;101538.06;5092630;28;20138;-77
2021/03/30 08:32:54;;;;;;;13.18;9.82;;;;;;;15.63;39.20;101536.91;5067339;28;20040;-77
2021/03/30 08:38:44;;;;;;;15.52;11.00;;;;;;;15.25;39.20;101538.56;5092643;28;20062;-76
2021/03/30 08:44:38;;;;;;;17.17;11.40;;;;;;;15.94;38.42;101540.41;5091976;28;20042;-77
2021/03/30 08:47:44;;;;;;;17.27;11.32;;;;;;;16.33;37.95;101534.25;5074330;28;20089;-77
2021/03/30 08:53:31;;;;;;;15.60;11.30;;;;;;;15.55;38.41;101526.81;5092546;28;20043;-77
2021/03/30 08:56:46;;;;;;;20.05;11.57;;;;;;;15.34;38.42;101537.53;5092185;28;20263;-77
2021/03/30 08:59:14;;;;;;;15.35;11.10;;;;;;;15.17;37.71;101511.47;5092309;28;20028;-77
2021/03/30 09:01:40;;;;;;;13.65;10.60;;;;;;;15.18;38.70;101516.53;5091982;28;20054;-77
2021/03/30 09:04:43;;;;;;;15.68;10.60;;;;;;;16.22;37.12;101519.13;5074097;28;20024;-77
2021/03/30 09:07:23;;;;;;;14.63;10.13;;;;;;;15.60;37.55;101505.34;5074076;28;20424;-76
2021/03/30 09:13:16;;;;;;;14.10;10.60;;;;;;;16.58;37.30;101513.94;5092419;28;20039;-75
2021/03/30 09:16:08;;;;;;;14.85;10.57;;;;;;;15.65;37.75;101512.09;5057130;28;20032;-75
2021/03/30 09:18:46;;;;;;;14.55;10.75;;;;;;;15.86;37.25;101532.06;5073856;28;20020;-79
2021/03/30 09:21:33;;;;;;;13.20;10.40;;;;;;;16.50;36.33;101521.00;5091664;28;20102;-77
2021/03/30 09:24:27;;;;;;;15.48;11.00;;;;;;;15.88;36.79;101520.03;5073679;28;20071;-74
2021/03/30 09:27:12;;;;;;;15.52;10.32;;;;;;;15.61;38.15;101512.13;5091831;28;20036;-74
2021/03/30 09:29:38;;;;;;;16.15;10.77;;;;;;;15.46;37.57;101512.50;5091521;28;20420;-74
2021/03/30 09:32:09;;;;;;;14.07;10.88;;;;;;;15.52;37.72;101484.16;5091453;28;20028;-75
2021/03/30 09:34:44;;;;;;;13.60;10.63;;;;;;;17.67;34.89;101490.91;5073493;28;20035;-78
2021/03/30 09:37:31;;;;;;;15.85;11.38;;;;;;;16.12;37.06;101497.16;5073500;28;20044;-75
2021/03/30 09:40:07;;;;;;;14.52;10.70;;;;;;;17.25;36.93;101491.34;5091317;28;20111;-73
2021/03/30 09:42:41;;;;;;;16.60;12.02;;;;;;;16.29;35.62;101492.44;5091209;28;20032;-74
2021/03/30 09:45:09;;;;;;;15.55;11.77;;;;;;;16.14;36.75;101492.81;5091079;28;20127;-74
2021/03/30 09:47:37;;;;;;;16.58;11.23;;;;;;;16.30;36.27;101495.84;5072920;28;20028;-74
2021/03/30 09:50:18;;;;;;;14.85;11.45;;;;;;;15.74;37.17;101492.19;5072982;28;20107;-73
2021/03/30 09:52:46;;;;;;;16.23;11.70;;;;;;;16.78;36.18;101494.50;5072856;28;20028;-74
2021/03/30 09:55:30;;;;;;;16.45;11.13;;;;;;;15.79;37.14;101489.47;5073394;28;20086;-73
2021/03/30 09:58:10;;;;;;;16.33;11.70;;;;;;;15.58;38.07;101485.75;5095182;28;20049;-74
2021/03/30 10:00:44;;;;;;;17.17;11.98;;;;;;;15.60;37.41;101471.16;5076739;28;20028;-73
2021/03/30 10:03:17;;;;;;;14.50;10.88;;;;;;;15.92;36.97;101465.22;5076854;28;20032;-73
2021/03/30 10:05:49;;;;;;;15.35;11.15;;;;;;;16.64;37.00;101485.53;5095395;28;20111;-73
2021/03/30 10:08:22;;;;;;;16.35;11.02;;;;;;;16.72;36.13;101471.53;5077155;28;20028;-74
2021/03/30 10:10:58;;;;;;;14.90;11.23;;;;;;;15.18;38.44;101477.25;5094959;28;20036;-73
2021/03/30 10:13:32;;;;;;;15.80;11.95;;;;;;;15.09;38.32;101467.22;5076834;28;20123;-74
2021/03/30 10:16:13;;;;;;;17.88;12.70;;;;;;;15.08;38.84;101468.09;5076764;28;20024;-74
2021/03/30 10:18:43;;;;;;;15.68;11.52;;;;;;;16.35;37.42;101470.88;5094867;28;20053;-73
2021/03/30 10:21:21;;;;;;;15.77;11.27;;;;;;;15.43;37.60;101463.03;5076611;28;20048;-73
2021/03/30 10:23:50;;;;;;;18.02;12.18;;;;;;;16.48;36.25;101459.38;5094743;28;20025;-73
2021/03/30 10:26:27;;;;;;;16.85;11.13;;;;;;;15.72;36.95;101470.00;5094935;28;20032;-73
2021/03/30 10:28:57;;;;;;;16.00;10.60;;;;;;;15.54;38.38;101451.66;5094502;28;20409;-73
2021/03/30 10:34:25;;;;;;;17.52;13.00;;;;;;;14.89;38.81;101454.00;5094901;28;20023;-73
2021/03/30 10:36:54;;;;;;;18.40;12.35;;;;;;;14.98;39.12;101456.34;5076493;28;20039;-73
2021/03/30 10:39:38;;;;;;;21.63;13.15;;;;;;;15.37;38.53;101460.59;5094747;28;20024;-73
2021/03/30 10:42:09;;;;;;;18.33;12.18;;;;;;;15.00;39.57;101432.41;5094280;28;20077;-74
2021/03/30 10:44:47;;;;;;;17.97;12.43;;;;;;;15.16;39.52;101454.25;5094499;28;20031;-74
2021/03/30 10:47:29;;;;;;;16.75;12.13;;;;;;;15.22;39.39;101443.00;5076206;28;20266;-73
2021/03/30 10:50:19;;;;;;;18.40;13.98;;;;;;;15.53;39.00;101449.94;5076045;28;20075;-73
2021/03/30 10:52:44;;;;;;;19.05;13.73;;;;;;;14.72;39.11;101444.97;5076081;28;20059;-75
2021/03/30 10:55:20;;;;;;;19.85;13.82;;;;;;;15.15;39.67;101442.28;5076164;28;20063;-74
2021/03/30 10:57:51;;;;;;;20.25;14.15;;;;;;;15.24;39.79;101436.13;5076184;28;20469;-73
2021/03/30 11:00:19;;;;;;;19.93;13.03;;;;;;;14.80;40.25;101447.38;5093974;28;20023;-73
2021/03/30 11:02:45;;;;;;;17.77;13.10;;;;;;;14.59;40.49;101435.03;5076030;28;20040;-74
2021/03/30 11:05:12;;;;;;;17.17;12.93;;;;;;;15.22;40.29;101436.16;5075996;28;20017;-74
2021/03/30 11:07:47;;;;;;;19.55;13.07;;;;;;;15.83;38.87;101430.38;5092984;28;20095;-74
2021/03/30 11:10:15;;;;;;;19.10;13.52;;;;;;;15.34;39.74;101430.75;5076128;28;20106;-73
2021/03/30 11:12:56;;;;;;;20.98;13.23;;;;;;;14.87;40.61;101428.44;5075892;28;20111;-73
2021/03/30 11:15:42;;;;;;;18.73;13.25;;;;;;;14.99;40.07;101428.19;5075779;28;20028;-73
2021/03/30 11:18:35;;;;;;;18.77;14.45;;;;;;;14.76;39.81;101425.25;5093595;28;20114;-74
2021/03/30 11:21:01;;;;;;;19.10;13.07;;;;;;;15.04;40.59;101420.38;5093513;28;20028;-74
2021/03/30 11:23:30;;;;;;;17.30;12.95;;;;;;;14.72;41.20;101421.09;5075711;28;20109;-73
2021/03/30 11:25:58;;;;;;;20.25;14.07;;;;;;;14.73;40.23;101415.94;5075413;28;20047;-73
2021/03/30 11:28:29;;;;;;;16.65;13.02;;;;;;;14.77;39.66;101415.00;5093646;28;20050;-73
2021/03/30 11:31:02;;;;;;;21.23;13.23;;;;;;;14.82;40.08;101419.16;5056168;28;20516;-73
2021/03/30 11:33:33;;;;;;;21.10;15.30;;;;;;;14.53;39.55;101407.00;5051880;28;20033;-73
2021/03/30 11:36:13;;;;;;;18.63;14.20;;;;;;;14.63;40.04;101411.06;5053249;28;20025;-73
2021/03/30 11:38:39;;;;;;;18.42;13.57;;;;;;;15.67;37.79;101408.56;5052127;28;20033;-73
2021/03/30 11:41:05;;;;;;;17.70;13.50;;;;;;;15.05;38.93;101396.44;5053160;28;20040;-73
2021/03/30 11:43:31;;;;;;;19.67;14.50;;;;;;;15.39;38.15;101399.88;5051822;28;20025;-73
2021/03/30 11:46:17;;;;;;;21.67;15.23;;;;;;;15.02;39.20;101396.50;5051789;28;20021;-73
2021/03/30 11:48:44;;;;;;;28.30;19.23;;;;;;;15.28;39.18;101397.59;5051643;28;20029;-72
2021/03/30 11:51:09;;;;;;;24.23;16.17;;;;;;;14.97;40.44;101394.06;5051504;28;20017;-73
2021/03/30 11:53:36;;;;;;;18.65;13.48;;;;;;;14.69;39.99;101398.97;5051607;28;20479;-73
2021/03/30 11:56:03;;;;;;;16.80;13.55;;;;;;;14.61;40.59;101393.19;5051448;28;20065;-73
2021/03/30 11:58:35;;;;;;;18.13;13.48;;;;;;;14.59;41.34;101396.63;5052706;28;20509;-73
2021/03/30 12:01:10;;;;;;;20.25;14.95;;;;;;;14.96;40.63;101397.50;5052652;28;20025;-73
2021/03/30 12:03:40;;;;;;;21.27;14.07;;;;;;;15.03;39.53;101388.81;5052556;28;20071;-74
2021/03/30 12:06:06;;;;;;;22.00;15.18;;;;;;;14.86;40.59;101379.81;5051519;28;20033;-73
2021/03/30 12:08:34;;;;;;;19.63;14.70;;;;;;;14.92;40.57;101379.66;5052867;28;20029;-73
2021/03/30 12:11:11;;;;;;;19.52;14.70;;;;;;;16.42;38.08;101377.38;5051179;28;20067;-73
2021/03/30 12:13:44;;;;;;;16.45;13.10;;;;;;;15.83;39.14;101368.81;5051108;28;20124;-74
2021/03/30 12:16:10;;;;;;;19.17;14.32;;;;;;;15.40;39.52;101381.06;5051268;28;20021;-73
2021/03/30 12:18:35;;;;;;;19.48;13.13;;;;;;;15.02;41.05;101376.84;5051956;28;20025;-73
2021/03/30 12:21:01;;;;;;;17.23;13.55;;;;;;;15.04;40.81;101369.97;5050869;28;20027;-74
2021/03/30 12:23:26;;;;;;;18.88;12.65;;;;;;;14.89;40.69;101354.13;5052128;28;20029;-74
2021/03/30 12:25:51;;;;;;;16.55;12.73;;;;;;;14.60;41.53;101354.78;5050974;28;20029;-74
2021/03/30 12:28:17;;;;;;;17.63;13.10;;;;;;;15.11;40.44;101353.59;5051169;28;20384;-74
2021/03/30 12:30:45;;;;;;;17.40;12.50;;;;;;;14.85;41.28;101355.09;5050334;28;20490;-74
2021/03/30 12:33:13;;;;;;;20.25;12.90;;;;;;;15.05;41.17;101360.59;5051096;28;20049;-74
2021/03/30 12:35:38;;;;;;;18.13;13.25;;;;;;;15.77;40.00;101368.97;5052115;28;20025;-73
2021/03/30 12:38:03;;;;;;;21.45;14.35;;;;;;;14.73;41.15;101351.94;5051922;28;20043;-73
2021/03/30 12:40:30;;;;;;;19.63;14.25;;;;;;;15.05;40.37;101356.31;5052007;28;20067;-74
2021/03/30 12:42:55;;;;;;;17.80;13.35;;;;;;;14.55;40.20;101336.16;5052045;28;20033;-74
2021/03/30 12:45:21;;;;;;;16.67;13.82;;;;;;;14.30;41.68;101353.72;5050425;28;20036;-73
2021/03/30 12:47:46;;;;;;;18.48;14.52;;;;;;;14.41;41.49;101348.41;5052040;28;20025;-73
2021/03/30 12:50:13;;;;;;;16.88;13.30;;;;;;;14.42;41.29;101342.41;5051737;28;20057;-74
2021/03/30 12:52:39;;;;;;;17.85;13.32;;;;;;;14.21;42.66;101347.94;5050473;28;20517;-74
2021/03/30 12:55:06;;;;;;;17.17;13.85;;;;;;;14.51;41.33;101331.97;5050679;28;20029;-74
2021/03/30 12:57:35;;;;;;;20.52;14.32;;;;;;;14.88;41.76;101337.91;5050485;28;20049;-73
2021/03/30 13:00:02;;;;;;;26.83;14.07;;;;;;;15.73;40.20;101348.63;5050166;28;20074;-74
2021/03/30 13:02:28;;;;;;;17.98;13.13;;;;;;;16.34;39.21;101331.41;5050094;28;20029;-74
2021/03/30 13:04:53;;;;;;;18.30;14.18;;;;;;;15.12;40.59;101345.03;5051488;28;20025;-74
2021/03/30 13:07:19;;;;;;;16.95;13.18;;;;;;;14.51;41.95;101331.97;5051723;28;20453;-74
2021/03/30 13:09:48;;;;;;;15.60;13.25;;;;;;;14.31;41.88;101334.97;5051634;28;20025;-73